sensor_id;sensor_type;location;lat;lon;timestamp;temperature;humidity
3562;DHT22;1795;52.074;4.754;2023-05-07T00:00:06;14.80;99.90
3562;DHT22;1795;52.074;4.754;2023-05-07T00:02:36;14.80;99.90
3562;DHT22;1795;52.074;4.754;2023-05-07T00:05:06;14.80;99.90
3562;DHT22;1795;52.074;4.754;2023-05-07T00:07:35;14.80;99.90
3562;DHT22;1795;52.074;4.754;2023-05-07T00:10:04;14.80;99.90
3562;DHT22;1795;52.074;4.754;2023-05-07T00:12:33;14.80;99.90
3562;DHT22;1795;52.074;4.754;2023-05-07T00:15:02;14.80;99.90
3562;DHT22;1795;52.074;4.754;2023-05-07T00:17:30;14.70;99.90
3562;DHT22;1795;52.074;4.754;2023-05-07T00:19:59;14.70;99.90
3562;DHT22;1795;52.074;4.754;2023-05-07T00:22:28;14.70;99.90
3562;DHT22;1795;52.074;4.754;2023-05-07T00:24:56;14.70;99.90
3562;DHT22;1795;52.074;4.754;2023-05-07T00:27:24;14.70;99.90
3562;DHT22;1795;52.074;4.754;2023-05-07T00:29:52;14.70;99.90
3562;DHT22;1795;52.074;4.754;2023-05-07T00:32:20;14.70;99.90
3562;DHT22;1795;52.074;4.754;2023-05-07T00:34:48;14.70;99.90
3562;DHT22;1795;52.074;4.754;2023-05-07T00:37:17;14.70;99.90
3562;DHT22;1795;52.074;4.754;2023-05-07T00:39:47;14.70;99.90
3562;DHT22;1795;52.074;4.754;2023-05-07T00:42:15;14.60;99.90
3562;DHT22;1795;52.074;4.754;2023-05-07T00:44:42;14.60;99.90
3562;DHT22;1795;52.074;4.754;2023-05-07T00:47:11;14.60;99.90
3562;DHT22;1795;52.074;4.754;2023-05-07T00:49:43;14.60;99.90
3562;DHT22;1795;52.074;4.754;2023-05-07T00:52:13;14.60;99.90
3562;DHT22;1795;52.074;4.754;2023-05-07T00:54:41;14.60;99.90
3562;DHT22;1795;52.074;4.754;2023-05-07T00:57:11;14.60;99.90
3562;DHT22;1795;52.074;4.754;2023-05-07T00:59:39;14.60;99.90
3562;DHT22;1795;52.074;4.754;2023-05-07T01:02:07;14.60;99.90
3562;DHT22;1795;52.074;4.754;2023-05-07T01:04:35;14.60;99.90
3562;DHT22;1795;52.074;4.754;2023-05-07T01:07:03;14.60;99.90
3562;DHT22;1795;52.074;4.754;2023-05-07T01:09:33;14.50;99.90
3562;DHT22;1795;52.074;4.754;2023-05-07T01:12:03;14.60;99.90
3562;DHT22;1795;52.074;4.754;2023-05-07T01:14:33;14.50;99.90
3562;DHT22;1795;52.074;4.754;2023-05-07T01:17:01;14.50;99.90
3562;DHT22;1795;52.074;4.754;2023-05-07T01:19:29;14.50;99.90
3562;DHT22;1795;52.074;4.754;2023-05-07T01:22:02;14.50;99.90
3562;DHT22;1795;52.074;4.754;2023-05-07T01:24:33;14.50;99.90
3562;DHT22;1795;52.074;4.754;2023-05-07T01:27:00;14.50;99.90
3562;DHT22;1795;52.074;4.754;2023-05-07T01:29:29;14.50;99.90
3562;DHT22;1795;52.074;4.754;2023-05-07T01:31:57;14.50;99.90
3562;DHT22;1795;52.074;4.754;2023-05-07T01:34:29;14.50;99.90
3562;DHT22;1795;52.074;4.754;2023-05-07T01:36:59;14.50;99.90
3562;DHT22;1795;52.074;4.754;2023-05-07T01:39:29;14.50;99.90
3562;DHT22;1795;52.074;4.754;2023-05-07T01:41:59;14.50;99.90
3562;DHT22;1795;52.074;4.754;2023-05-07T01:44:27;14.50;99.90
3562;DHT22;1795;52.074;4.754;2023-05-07T01:46:55;14.40;99.90
3562;DHT22;1795;52.074;4.754;2023-05-07T01:49:24;14.50;99.90
3562;DHT22;1795;52.074;4.754;2023-05-07T01:51:52;14.50;99.90
3562;DHT22;1795;52.074;4.754;2023-05-07T01:54:25;14.40;99.90
3562;DHT22;1795;52.074;4.754;2023-05-07T01:56:55;14.40;99.90
3562;DHT22;1795;52.074;4.754;2023-05-07T01:59:25;14.40;99.90
3562;DHT22;1795;52.074;4.754;2023-05-07T02:01:53;14.40;99.90
3562;DHT22;1795;52.074;4.754;2023-05-07T02:04:21;14.40;99.90
3562;DHT22;1795;52.074;4.754;2023-05-07T02:06:49;14.40;99.90
3562;DHT22;1795;52.074;4.754;2023-05-07T02:09:17;14.40;99.90
3562;DHT22;1795;52.074;4.754;2023-05-07T02:11:45;14.40;99.90
3562;DHT22;1795;52.074;4.754;2023-05-07T02:14:13;14.40;99.90
3562;DHT22;1795;52.074;4.754;2023-05-07T02:16:43;14.40;99.90
3562;DHT22;1795;52.074;4.754;2023-05-07T02:19:11;14.40;99.90
3562;DHT22;1795;52.074;4.754;2023-05-07T02:21:39;14.30;99.90
3562;DHT22;1795;52.074;4.754;2023-05-07T02:24:07;14.30;99.90
3562;DHT22;1795;52.074;4.754;2023-05-07T02:26:35;14.30;99.90
3562;DHT22;1795;52.074;4.754;2023-05-07T02:29:03;14.30;99.90
3562;DHT22;1795;52.074;4.754;2023-05-07T02:31:31;14.30;99.90
3562;DHT22;1795;52.074;4.754;2023-05-07T02:34:01;14.30;99.90
3562;DHT22;1795;52.074;4.754;2023-05-07T02:36:30;14.30;99.90
3562;DHT22;1795;52.074;4.754;2023-05-07T02:38:58;14.30;99.90
3562;DHT22;1795;52.074;4.754;2023-05-07T02:41:26;14.30;99.90
3562;DHT22;1795;52.074;4.754;2023-05-07T02:43:54;14.30;99.90
3562;DHT22;1795;52.074;4.754;2023-05-07T02:46:22;14.30;99.90
3562;DHT22;1795;52.074;4.754;2023-05-07T02:48:50;14.30;99.90
3562;DHT22;1795;52.074;4.754;2023-05-07T02:51:21;14.30;99.90
3562;DHT22;1795;52.074;4.754;2023-05-07T02:53:51;14.20;99.90
3562;DHT22;1795;52.074;4.754;2023-05-07T02:56:19;14.20;99.90
3562;DHT22;1795;52.074;4.754;2023-05-07T02:58:47;14.20;99.90
3562;DHT22;1795;52.074;4.754;2023-05-07T03:01:15;14.20;99.90
3562;DHT22;1795;52.074;4.754;2023-05-07T03:03:44;14.20;99.90
3562;DHT22;1795;52.074;4.754;2023-05-07T03:06:12;14.20;99.90
3562;DHT22;1795;52.074;4.754;2023-05-07T03:08:41;14.20;99.90
3562;DHT22;1795;52.074;4.754;2023-05-07T03:11:09;14.20;99.90
3562;DHT22;1795;52.074;4.754;2023-05-07T03:13:37;14.20;99.90
3562;DHT22;1795;52.074;4.754;2023-05-07T03:16:06;14.20;99.90
3562;DHT22;1795;52.074;4.754;2023-05-07T03:18:34;14.20;99.90
3562;DHT22;1795;52.074;4.754;2023-05-07T03:21:02;14.20;99.90
3562;DHT22;1795;52.074;4.754;2023-05-07T03:23:30;14.20;99.90
3562;DHT22;1795;52.074;4.754;2023-05-07T03:25:59;14.10;99.90
3562;DHT22;1795;52.074;4.754;2023-05-07T03:28:27;14.10;99.90
3562;DHT22;1795;52.074;4.754;2023-05-07T03:30:55;14.10;99.90
3562;DHT22;1795;52.074;4.754;2023-05-07T03:33:23;14.10;99.90
3562;DHT22;1795;52.074;4.754;2023-05-07T03:35:51;14.10;99.90
3562;DHT22;1795;52.074;4.754;2023-05-07T03:38:19;14.10;99.90
3562;DHT22;1795;52.074;4.754;2023-05-07T03:40:47;14.10;99.90
3562;DHT22;1795;52.074;4.754;2023-05-07T03:43:18;14.10;99.90
3562;DHT22;1795;52.074;4.754;2023-05-07T03:45:46;14.10;99.90
3562;DHT22;1795;52.074;4.754;2023-05-07T03:48:13;14.10;99.90
3562;DHT22;1795;52.074;4.754;2023-05-07T03:50:41;14.10;99.90
3562;DHT22;1795;52.074;4.754;2023-05-07T03:53:09;14.10;99.90
3562;DHT22;1795;52.074;4.754;2023-05-07T03:55:37;14.10;99.90
3562;DHT22;1795;52.074;4.754;2023-05-07T03:58:05;14.10;99.90
3562;DHT22;1795;52.074;4.754;2023-05-07T04:00:34;14.10;99.90
3562;DHT22;1795;52.074;4.754;2023-05-07T04:03:05;14.10;99.90
3562;DHT22;1795;52.074;4.754;2023-05-07T04:05:34;14.10;99.90
3562;DHT22;1795;52.074;4.754;2023-05-07T04:08:02;14.10;99.90
3562;DHT22;1795;52.074;4.754;2023-05-07T04:10:30;14.10;99.90
3562;DHT22;1795;52.074;4.754;2023-05-07T04:12:58;14.10;99.90
3562;DHT22;1795;52.074;4.754;2023-05-07T04:15:25;14.10;99.90
3562;DHT22;1795;52.074;4.754;2023-05-07T04:17:55;14.10;99.90
3562;DHT22;1795;52.074;4.754;2023-05-07T04:20:23;14.10;99.90
3562;DHT22;1795;52.074;4.754;2023-05-07T04:22:51;14.10;99.90
3562;DHT22;1795;52.074;4.754;2023-05-07T04:25:19;14.10;99.90
3562;DHT22;1795;52.074;4.754;2023-05-07T04:27:47;14.10;99.90
3562;DHT22;1795;52.074;4.754;2023-05-07T04:30:17;14.10;99.90
3562;DHT22;1795;52.074;4.754;2023-05-07T04:32:45;14.00;99.90
3562;DHT22;1795;52.074;4.754;2023-05-07T04:35:14;14.00;99.90
3562;DHT22;1795;52.074;4.754;2023-05-07T04:37:42;14.00;99.90
3562;DHT22;1795;52.074;4.754;2023-05-07T04:40:10;14.10;99.90
3562;DHT22;1795;52.074;4.754;2023-05-07T04:42:38;14.10;99.90
3562;DHT22;1795;52.074;4.754;2023-05-07T04:45:07;14.00;99.90
3562;DHT22;1795;52.074;4.754;2023-05-07T04:47:36;14.00;99.90
3562;DHT22;1795;52.074;4.754;2023-05-07T04:50:05;14.00;99.90
3562;DHT22;1795;52.074;4.754;2023-05-07T04:52:35;14.00;99.90
3562;DHT22;1795;52.074;4.754;2023-05-07T04:55:04;14.10;99.90
3562;DHT22;1795;52.074;4.754;2023-05-07T04:57:33;14.10;99.90
3562;DHT22;1795;52.074;4.754;2023-05-07T05:00:01;14.10;99.90
3562;DHT22;1795;52.074;4.754;2023-05-07T05:02:30;14.10;99.90
3562;DHT22;1795;52.074;4.754;2023-05-07T05:04:58;14.10;99.90
3562;DHT22;1795;52.074;4.754;2023-05-07T05:07:28;14.10;99.90
3562;DHT22;1795;52.074;4.754;2023-05-07T05:09:57;14.10;99.90
3562;DHT22;1795;52.074;4.754;2023-05-07T05:12:25;14.10;99.90
3562;DHT22;1795;52.074;4.754;2023-05-07T05:14:53;14.10;99.90
3562;DHT22;1795;52.074;4.754;2023-05-07T05:17:21;14.10;99.90
3562;DHT22;1795;52.074;4.754;2023-05-07T05:19:50;14.10;99.90
3562;DHT22;1795;52.074;4.754;2023-05-07T05:22:17;14.10;99.90
3562;DHT22;1795;52.074;4.754;2023-05-07T05:24:47;14.10;99.90
3562;DHT22;1795;52.074;4.754;2023-05-07T05:27:16;14.10;99.90
3562;DHT22;1795;52.074;4.754;2023-05-07T05:29:44;14.10;99.90
3562;DHT22;1795;52.074;4.754;2023-05-07T05:32:12;14.10;99.90
3562;DHT22;1795;52.074;4.754;2023-05-07T05:34:40;14.20;99.90
3562;DHT22;1795;52.074;4.754;2023-05-07T05:37:08;14.20;99.90
3562;DHT22;1795;52.074;4.754;2023-05-07T05:39:36;14.20;99.90
3562;DHT22;1795;52.074;4.754;2023-05-07T05:42:04;14.20;99.90
3562;DHT22;1795;52.074;4.754;2023-05-07T05:44:33;14.30;99.90
3562;DHT22;1795;52.074;4.754;2023-05-07T05:47:02;14.30;99.90
3562;DHT22;1795;52.074;4.754;2023-05-07T05:49:30;14.30;99.90
3562;DHT22;1795;52.074;4.754;2023-05-07T05:51:58;14.30;99.90
3562;DHT22;1795;52.074;4.754;2023-05-07T05:54:26;14.30;99.90
3562;DHT22;1795;52.074;4.754;2023-05-07T05:56:54;14.30;99.90
3562;DHT22;1795;52.074;4.754;2023-05-07T05:59:22;14.30;99.90
3562;DHT22;1795;52.074;4.754;2023-05-07T06:01:51;14.30;99.90
3562;DHT22;1795;52.074;4.754;2023-05-07T06:04:20;14.40;99.90
3562;DHT22;1795;52.074;4.754;2023-05-07T06:06:48;14.40;99.90
3562;DHT22;1795;52.074;4.754;2023-05-07T06:09:15;14.40;99.90
3562;DHT22;1795;52.074;4.754;2023-05-07T06:11:43;14.40;99.90
3562;DHT22;1795;52.074;4.754;2023-05-07T06:14:11;14.40;99.90
3562;DHT22;1795;52.074;4.754;2023-05-07T06:16:39;14.40;99.90
3562;DHT22;1795;52.074;4.754;2023-05-07T06:19:10;14.40;99.90
3562;DHT22;1795;52.074;4.754;2023-05-07T06:21:38;14.50;99.90
3562;DHT22;1795;52.074;4.754;2023-05-07T06:24:07;14.50;99.90
3562;DHT22;1795;52.074;4.754;2023-05-07T06:26:35;14.50;99.90
3562;DHT22;1795;52.074;4.754;2023-05-07T06:29:03;14.50;99.90
3562;DHT22;1795;52.074;4.754;2023-05-07T06:31:31;14.60;99.90
3562;DHT22;1795;52.074;4.754;2023-05-07T06:33:59;14.60;99.90
3562;DHT22;1795;52.074;4.754;2023-05-07T06:36:30;14.60;99.90
3562;DHT22;1795;52.074;4.754;2023-05-07T06:38:58;14.60;99.90
3562;DHT22;1795;52.074;4.754;2023-05-07T06:41:26;14.60;99.90
3562;DHT22;1795;52.074;4.754;2023-05-07T06:43:54;14.60;99.90
3562;DHT22;1795;52.074;4.754;2023-05-07T06:46:22;14.70;99.90
3562;DHT22;1795;52.074;4.754;2023-05-07T06:48:50;14.70;99.90
3562;DHT22;1795;52.074;4.754;2023-05-07T06:51:18;14.70;99.90
3562;DHT22;1795;52.074;4.754;2023-05-07T06:53:48;14.70;99.90
3562;DHT22;1795;52.074;4.754;2023-05-07T06:56:16;14.80;99.90
3562;DHT22;1795;52.074;4.754;2023-05-07T06:58:43;14.80;99.90
3562;DHT22;1795;52.074;4.754;2023-05-07T07:01:12;14.80;99.90
3562;DHT22;1795;52.074;4.754;2023-05-07T07:03:40;14.80;99.90
3562;DHT22;1795;52.074;4.754;2023-05-07T07:06:08;14.80;99.90
3562;DHT22;1795;52.074;4.754;2023-05-07T07:08:36;14.90;99.90
3562;DHT22;1795;52.074;4.754;2023-05-07T07:11:06;14.90;99.90
3562;DHT22;1795;52.074;4.754;2023-05-07T07:13:34;14.90;99.90
3562;DHT22;1795;52.074;4.754;2023-05-07T07:16:02;15.00;99.90
3562;DHT22;1795;52.074;4.754;2023-05-07T07:18:31;15.00;99.90
3562;DHT22;1795;52.074;4.754;2023-05-07T07:20:58;15.00;99.90
3562;DHT22;1795;52.074;4.754;2023-05-07T07:23:26;15.00;99.90
3562;DHT22;1795;52.074;4.754;2023-05-07T07:25:54;15.10;99.90
3562;DHT22;1795;52.074;4.754;2023-05-07T07:28:24;15.10;99.90
3562;DHT22;1795;52.074;4.754;2023-05-07T07:30:52;15.10;99.90
3562;DHT22;1795;52.074;4.754;2023-05-07T07:33:20;15.10;99.90
3562;DHT22;1795;52.074;4.754;2023-05-07T07:35:48;15.20;99.90
3562;DHT22;1795;52.074;4.754;2023-05-07T07:38:16;15.10;99.90
3562;DHT22;1795;52.074;4.754;2023-05-07T07:40:44;15.20;99.90
3562;DHT22;1795;52.074;4.754;2023-05-07T07:43:12;15.20;99.90
3562;DHT22;1795;52.074;4.754;2023-05-07T07:45:41;15.20;99.90
3562;DHT22;1795;52.074;4.754;2023-05-07T07:48:10;15.20;99.90
3562;DHT22;1795;52.074;4.754;2023-05-07T07:50:38;15.20;99.90
3562;DHT22;1795;52.074;4.754;2023-05-07T07:53:11;15.30;99.90
3562;DHT22;1795;52.074;4.754;2023-05-07T07:55:39;15.30;99.90
3562;DHT22;1795;52.074;4.754;2023-05-07T07:58:07;15.30;99.90
3562;DHT22;1795;52.074;4.754;2023-05-07T08:00:36;15.30;99.90
3562;DHT22;1795;52.074;4.754;2023-05-07T08:03:05;15.30;99.90
3562;DHT22;1795;52.074;4.754;2023-05-07T08:05:34;15.30;99.90
3562;DHT22;1795;52.074;4.754;2023-05-07T08:08:03;15.30;99.90
3562;DHT22;1795;52.074;4.754;2023-05-07T08:10:31;15.40;99.90
3562;DHT22;1795;52.074;4.754;2023-05-07T08:13:01;15.40;99.90
3562;DHT22;1795;52.074;4.754;2023-05-07T08:15:30;15.50;99.90
3562;DHT22;1795;52.074;4.754;2023-05-07T08:17:59;15.50;99.90
3562;DHT22;1795;52.074;4.754;2023-05-07T08:20:29;15.60;99.90
3562;DHT22;1795;52.074;4.754;2023-05-07T08:22:57;15.60;99.90
3562;DHT22;1795;52.074;4.754;2023-05-07T08:25:25;15.70;99.90
3562;DHT22;1795;52.074;4.754;2023-05-07T08:27:53;15.70;99.90
3562;DHT22;1795;52.074;4.754;2023-05-07T08:30:21;15.80;99.90
3562;DHT22;1795;52.074;4.754;2023-05-07T08:32:49;15.90;99.90
3562;DHT22;1795;52.074;4.754;2023-05-07T08:35:17;16.00;99.90
3562;DHT22;1795;52.074;4.754;2023-05-07T08:37:46;16.10;99.90
3562;DHT22;1795;52.074;4.754;2023-05-07T08:40:14;16.10;99.90
3562;DHT22;1795;52.074;4.754;2023-05-07T08:42:44;16.30;99.90
3562;DHT22;1795;52.074;4.754;2023-05-07T08:45:12;16.80;99.90
3562;DHT22;1795;52.074;4.754;2023-05-07T08:47:43;17.00;99.90
3562;DHT22;1795;52.074;4.754;2023-05-07T08:50:12;17.10;99.90
3562;DHT22;1795;52.074;4.754;2023-05-07T08:52:40;17.10;99.90
3562;DHT22;1795;52.074;4.754;2023-05-07T08:55:10;17.10;99.90
3562;DHT22;1795;52.074;4.754;2023-05-07T08:57:38;17.20;99.90
3562;DHT22;1795;52.074;4.754;2023-05-07T09:00:07;17.20;99.90
3562;DHT22;1795;52.074;4.754;2023-05-07T09:02:36;17.30;99.90
3562;DHT22;1795;52.074;4.754;2023-05-07T09:05:05;17.40;99.90
3562;DHT22;1795;52.074;4.754;2023-05-07T09:07:33;17.50;99.90
3562;DHT22;1795;52.074;4.754;2023-05-07T09:10:02;17.60;99.90
3562;DHT22;1795;52.074;4.754;2023-05-07T09:12:32;17.70;99.90
3562;DHT22;1795;52.074;4.754;2023-05-07T09:15:02;17.70;99.90
3562;DHT22;1795;52.074;4.754;2023-05-07T09:17:30;17.70;99.90
3562;DHT22;1795;52.074;4.754;2023-05-07T09:20:02;17.80;99.90
3562;DHT22;1795;52.074;4.754;2023-05-07T09:22:31;17.80;99.90
3562;DHT22;1795;52.074;4.754;2023-05-07T09:24:59;17.90;99.90
3562;DHT22;1795;52.074;4.754;2023-05-07T09:27:27;17.90;99.90
3562;DHT22;1795;52.074;4.754;2023-05-07T09:29:57;17.90;99.90
3562;DHT22;1795;52.074;4.754;2023-05-07T09:32:25;18.00;99.90
3562;DHT22;1795;52.074;4.754;2023-05-07T09:34:54;18.00;99.90
3562;DHT22;1795;52.074;4.754;2023-05-07T09:37:22;18.10;99.90
3562;DHT22;1795;52.074;4.754;2023-05-07T09:39:50;18.20;99.90
3562;DHT22;1795;52.074;4.754;2023-05-07T09:42:23;18.30;99.90
3562;DHT22;1795;52.074;4.754;2023-05-07T09:44:51;18.40;99.90
3562;DHT22;1795;52.074;4.754;2023-05-07T09:47:24;18.50;99.90
3562;DHT22;1795;52.074;4.754;2023-05-07T09:49:56;18.50;99.90
3562;DHT22;1795;52.074;4.754;2023-05-07T09:52:26;18.60;99.90
3562;DHT22;1795;52.074;4.754;2023-05-07T09:54:56;18.70;99.90
3562;DHT22;1795;52.074;4.754;2023-05-07T09:57:26;18.70;99.90
3562;DHT22;1795;52.074;4.754;2023-05-07T09:59:56;18.70;99.90
3562;DHT22;1795;52.074;4.754;2023-05-07T10:02:29;18.80;99.90
3562;DHT22;1795;52.074;4.754;2023-05-07T10:04:58;18.80;99.90
3562;DHT22;1795;52.074;4.754;2023-05-07T10:07:27;18.70;99.90
3562;DHT22;1795;52.074;4.754;2023-05-07T10:09:56;18.80;99.90
3562;DHT22;1795;52.074;4.754;2023-05-07T10:12:25;18.80;99.90
3562;DHT22;1795;52.074;4.754;2023-05-07T10:14:54;18.80;99.90
3562;DHT22;1795;52.074;4.754;2023-05-07T10:17:23;19.00;99.90
3562;DHT22;1795;52.074;4.754;2023-05-07T10:19:54;19.10;99.90
3562;DHT22;1795;52.074;4.754;2023-05-07T10:22:22;19.10;99.90
3562;DHT22;1795;52.074;4.754;2023-05-07T10:24:52;19.10;99.90
3562;DHT22;1795;52.074;4.754;2023-05-07T10:27:23;19.10;99.90
3562;DHT22;1795;52.074;4.754;2023-05-07T10:30:00;19.10;99.90
3562;DHT22;1795;52.074;4.754;2023-05-07T10:32:39;19.20;99.90
3562;DHT22;1795;52.074;4.754;2023-05-07T10:35:12;19.30;99.90
3562;DHT22;1795;52.074;4.754;2023-05-07T10:37:42;19.40;99.90
3562;DHT22;1795;52.074;4.754;2023-05-07T10:40:11;19.50;99.90
3562;DHT22;1795;52.074;4.754;2023-05-07T10:42:53;19.50;99.90
3562;DHT22;1795;52.074;4.754;2023-05-07T10:45:23;19.50;99.90
3562;DHT22;1795;52.074;4.754;2023-05-07T10:48:08;19.60;99.90
3562;DHT22;1795;52.074;4.754;2023-05-07T10:51:19;19.70;99.90
3562;DHT22;1795;52.074;4.754;2023-05-07T10:53:47;19.70;99.90
3562;DHT22;1795;52.074;4.754;2023-05-07T10:56:34;19.70;99.90
3562;DHT22;1795;52.074;4.754;2023-05-07T10:59:30;19.80;99.90
3562;DHT22;1795;52.074;4.754;2023-05-07T11:01:59;19.90;99.90
3562;DHT22;1795;52.074;4.754;2023-05-07T11:04:30;20.00;99.90
3562;DHT22;1795;52.074;4.754;2023-05-07T11:07:24;20.10;99.90
3562;DHT22;1795;52.074;4.754;2023-05-07T11:09:57;20.00;99.90
3562;DHT22;1795;52.074;4.754;2023-05-07T11:12:47;20.10;99.90
3562;DHT22;1795;52.074;4.754;2023-05-07T11:15:33;20.20;99.90
3562;DHT22;1795;52.074;4.754;2023-05-07T11:18:02;20.30;99.90
3562;DHT22;1795;52.074;4.754;2023-05-07T11:20:51;20.40;99.90
3562;DHT22;1795;52.074;4.754;2023-05-07T11:26:46;20.60;99.90
3562;DHT22;1795;52.074;4.754;2023-05-07T11:29:17;20.50;99.90
3562;DHT22;1795;52.074;4.754;2023-05-07T11:31:49;20.50;99.90
3562;DHT22;1795;52.074;4.754;2023-05-07T11:34:21;20.60;99.90
3562;DHT22;1795;52.074;4.754;2023-05-07T11:36:50;20.70;99.90
3562;DHT22;1795;52.074;4.754;2023-05-07T11:39:28;20.70;99.90
3562;DHT22;1795;52.074;4.754;2023-05-07T11:41:58;20.70;99.90
3562;DHT22;1795;52.074;4.754;2023-05-07T11:44:41;20.70;99.90
3562;DHT22;1795;52.074;4.754;2023-05-07T11:47:10;20.80;99.90
3562;DHT22;1795;52.074;4.754;2023-05-07T11:49:38;20.80;99.90
3562;DHT22;1795;52.074;4.754;2023-05-07T11:52:07;20.80;99.90
3562;DHT22;1795;52.074;4.754;2023-05-07T11:54:35;21.00;99.90
3562;DHT22;1795;52.074;4.754;2023-05-07T11:57:05;21.10;99.90
3562;DHT22;1795;52.074;4.754;2023-05-07T11:59:38;21.00;99.90
3562;DHT22;1795;52.074;4.754;2023-05-07T12:02:06;21.00;99.90
3562;DHT22;1795;52.074;4.754;2023-05-07T12:04:34;21.10;99.90
3562;DHT22;1795;52.074;4.754;2023-05-07T12:07:03;21.10;99.90
3562;DHT22;1795;52.074;4.754;2023-05-07T12:09:32;20.90;99.90
3562;DHT22;1795;52.074;4.754;2023-05-07T12:12:03;20.90;99.90
3562;DHT22;1795;52.074;4.754;2023-05-07T12:14:35;20.90;99.90
3562;DHT22;1795;52.074;4.754;2023-05-07T12:17:05;20.90;99.90
3562;DHT22;1795;52.074;4.754;2023-05-07T12:19:34;21.10;99.90
3562;DHT22;1795;52.074;4.754;2023-05-07T12:22:03;21.20;99.90
3562;DHT22;1795;52.074;4.754;2023-05-07T12:24:44;21.10;99.90
3562;DHT22;1795;52.074;4.754;2023-05-07T12:27:13;21.10;99.90
3562;DHT22;1795;52.074;4.754;2023-05-07T12:29:46;21.10;99.90
3562;DHT22;1795;52.074;4.754;2023-05-07T12:32:14;21.20;99.90
3562;DHT22;1795;52.074;4.754;2023-05-07T12:34:43;21.10;99.90
3562;DHT22;1795;52.074;4.754;2023-05-07T12:37:11;20.90;99.90
3562;DHT22;1795;52.074;4.754;2023-05-07T12:39:44;20.60;99.90
3562;DHT22;1795;52.074;4.754;2023-05-07T12:42:15;20.30;99.90
3562;DHT22;1795;52.074;4.754;2023-05-07T12:44:45;20.10;99.90
3562;DHT22;1795;52.074;4.754;2023-05-07T12:47:14;19.80;99.90
3562;DHT22;1795;52.074;4.754;2023-05-07T12:49:43;19.50;99.90
3562;DHT22;1795;52.074;4.754;2023-05-07T12:52:12;19.70;99.90
3562;DHT22;1795;52.074;4.754;2023-05-07T12:54:41;20.50;99.90
3562;DHT22;1795;52.074;4.754;2023-05-07T12:57:09;21.00;99.90
3562;DHT22;1795;52.074;4.754;2023-05-07T12:59:38;21.40;99.90
3562;DHT22;1795;52.074;4.754;2023-05-07T13:02:08;21.70;99.90
3562;DHT22;1795;52.074;4.754;2023-05-07T13:04:37;21.90;99.90
3562;DHT22;1795;52.074;4.754;2023-05-07T13:07:05;22.20;99.90
3562;DHT22;1795;52.074;4.754;2023-05-07T13:09:33;22.30;99.90
3562;DHT22;1795;52.074;4.754;2023-05-07T13:12:00;22.40;99.90
3562;DHT22;1795;52.074;4.754;2023-05-07T13:14:28;22.50;99.90
3562;DHT22;1795;52.074;4.754;2023-05-07T13:16:56;22.60;99.90
3562;DHT22;1795;52.074;4.754;2023-05-07T13:19:26;22.60;99.90
3562;DHT22;1795;52.074;4.754;2023-05-07T13:21:57;22.60;99.90
3562;DHT22;1795;52.074;4.754;2023-05-07T13:24:25;22.60;99.90
3562;DHT22;1795;52.074;4.754;2023-05-07T13:26:52;22.60;99.90
3562;DHT22;1795;52.074;4.754;2023-05-07T13:29:21;22.60;99.90
3562;DHT22;1795;52.074;4.754;2023-05-07T13:31:56;22.60;99.90
3562;DHT22;1795;52.074;4.754;2023-05-07T13:34:25;22.50;99.90
3562;DHT22;1795;52.074;4.754;2023-05-07T13:36:53;22.50;99.90
3562;DHT22;1795;52.074;4.754;2023-05-07T13:39:22;22.40;99.90
3562;DHT22;1795;52.074;4.754;2023-05-07T13:41:49;22.30;99.90
3562;DHT22;1795;52.074;4.754;2023-05-07T13:44:17;22.20;99.90
3562;DHT22;1795;52.074;4.754;2023-05-07T13:46:45;22.10;99.90
3562;DHT22;1795;52.074;4.754;2023-05-07T13:49:13;21.80;99.90
3562;DHT22;1795;52.074;4.754;2023-05-07T13:51:43;21.60;99.90
3562;DHT22;1795;52.074;4.754;2023-05-07T13:54:10;21.30;99.90
3562;DHT22;1795;52.074;4.754;2023-05-07T13:56:39;21.10;99.90
3562;DHT22;1795;52.074;4.754;2023-05-07T13:59:07;20.90;99.90
3562;DHT22;1795;52.074;4.754;2023-05-07T14:01:35;20.70;99.90
3562;DHT22;1795;52.074;4.754;2023-05-07T14:04:03;20.60;99.90
3562;DHT22;1795;52.074;4.754;2023-05-07T14:06:31;20.40;99.90
3562;DHT22;1795;52.074;4.754;2023-05-07T14:09:00;20.20;99.90
3562;DHT22;1795;52.074;4.754;2023-05-07T14:11:28;20.00;99.90
3562;DHT22;1795;52.074;4.754;2023-05-07T14:13:56;19.90;99.90
3562;DHT22;1795;52.074;4.754;2023-05-07T14:16:25;19.70;99.90
3562;DHT22;1795;52.074;4.754;2023-05-07T14:18:53;19.70;99.90
3562;DHT22;1795;52.074;4.754;2023-05-07T14:21:24;19.50;99.90
3562;DHT22;1795;52.074;4.754;2023-05-07T14:23:51;19.50;99.90
3562;DHT22;1795;52.074;4.754;2023-05-07T14:26:21;19.40;99.90
3562;DHT22;1795;52.074;4.754;2023-05-07T14:28:49;19.30;99.90
3562;DHT22;1795;52.074;4.754;2023-05-07T14:31:17;19.30;99.90
3562;DHT22;1795;52.074;4.754;2023-05-07T14:33:45;19.20;99.90
3562;DHT22;1795;52.074;4.754;2023-05-07T14:36:13;19.20;99.90
3562;DHT22;1795;52.074;4.754;2023-05-07T14:38:42;19.10;99.90
3562;DHT22;1795;52.074;4.754;2023-05-07T14:41:10;19.10;99.90
3562;DHT22;1795;52.074;4.754;2023-05-07T14:43:39;19.00;99.90
3562;DHT22;1795;52.074;4.754;2023-05-07T14:46:07;19.00;99.90
3562;DHT22;1795;52.074;4.754;2023-05-07T14:48:35;19.00;99.90
3562;DHT22;1795;52.074;4.754;2023-05-07T14:51:03;19.00;99.90
3562;DHT22;1795;52.074;4.754;2023-05-07T14:53:31;18.90;99.90
3562;DHT22;1795;52.074;4.754;2023-05-07T14:55:59;18.90;99.90
3562;DHT22;1795;52.074;4.754;2023-05-07T14:58:27;18.90;99.90
3562;DHT22;1795;52.074;4.754;2023-05-07T15:00:56;18.90;99.90
3562;DHT22;1795;52.074;4.754;2023-05-07T15:03:24;18.80;99.90
3562;DHT22;1795;52.074;4.754;2023-05-07T15:05:52;18.80;99.90
3562;DHT22;1795;52.074;4.754;2023-05-07T15:08:21;18.80;99.90
3562;DHT22;1795;52.074;4.754;2023-05-07T15:10:49;18.80;99.90
3562;DHT22;1795;52.074;4.754;2023-05-07T15:13:17;18.80;99.90
3562;DHT22;1795;52.074;4.754;2023-05-07T15:15:45;18.80;99.90
3562;DHT22;1795;52.074;4.754;2023-05-07T15:18:14;18.80;99.90
3562;DHT22;1795;52.074;4.754;2023-05-07T15:20:42;18.80;99.90
3562;DHT22;1795;52.074;4.754;2023-05-07T15:23:10;18.80;99.90
3562;DHT22;1795;52.074;4.754;2023-05-07T15:25:40;18.80;99.90
3562;DHT22;1795;52.074;4.754;2023-05-07T15:28:08;18.90;99.90
3562;DHT22;1795;52.074;4.754;2023-05-07T15:30:37;19.00;99.90
3562;DHT22;1795;52.074;4.754;2023-05-07T15:33:05;19.10;99.90
3562;DHT22;1795;52.074;4.754;2023-05-07T15:35:34;19.10;99.90
3562;DHT22;1795;52.074;4.754;2023-05-07T15:38:02;19.10;99.90
3562;DHT22;1795;52.074;4.754;2023-05-07T15:40:30;19.10;99.90
3562;DHT22;1795;52.074;4.754;2023-05-07T15:42:59;19.20;99.90
3562;DHT22;1795;52.074;4.754;2023-05-07T15:45:27;19.10;99.90
3562;DHT22;1795;52.074;4.754;2023-05-07T15:47:55;19.10;99.90
3562;DHT22;1795;52.074;4.754;2023-05-07T15:50:23;19.10;99.90
3562;DHT22;1795;52.074;4.754;2023-05-07T15:52:53;19.20;99.90
3562;DHT22;1795;52.074;4.754;2023-05-07T15:55:21;19.20;99.90
3562;DHT22;1795;52.074;4.754;2023-05-07T15:57:50;19.20;99.90
3562;DHT22;1795;52.074;4.754;2023-05-07T16:00:18;19.20;99.90
3562;DHT22;1795;52.074;4.754;2023-05-07T16:02:46;19.20;99.90
3562;DHT22;1795;52.074;4.754;2023-05-07T16:05:14;19.20;99.90
3562;DHT22;1795;52.074;4.754;2023-05-07T16:07:42;19.30;99.90
3562;DHT22;1795;52.074;4.754;2023-05-07T16:10:12;19.30;99.90
3562;DHT22;1795;52.074;4.754;2023-05-07T16:12:40;19.30;99.90
3562;DHT22;1795;52.074;4.754;2023-05-07T16:15:09;19.40;99.90
3562;DHT22;1795;52.074;4.754;2023-05-07T16:17:37;19.40;99.90